sensor_id;sensor_type;location;lat;lon;timestamp;pressure;altitude;pressure_sealevel;temperature
68510;BMP180;55512;50.102;19.958;2023-02-01T00:01:59;97959.40;;;2.10
68510;BMP180;55512;50.102;19.958;2023-02-01T00:04:25;97963.20;;;2.10
68510;BMP180;55512;50.102;19.958;2023-02-01T00:06:50;97956.80;;;2.10
68510;BMP180;55512;50.102;19.958;2023-02-01T00:09:16;97973.20;;;2.10
68510;BMP180;55512;50.102;19.958;2023-02-01T00:11:41;97961.60;;;2.10
68510;BMP180;55512;50.102;19.958;2023-02-01T00:14:07;97964.60;;;2.08
68510;BMP180;55512;50.102;19.958;2023-02-01T00:16:33;97972.60;;;2.10
68510;BMP180;55512;50.102;19.958;2023-02-01T00:19:01;97964.40;;;2.00
68510;BMP180;55512;50.102;19.958;2023-02-01T00:21:28;97968.60;;;2.00
68510;BMP180;55512;50.102;19.958;2023-02-01T00:23:53;97968.00;;;2.00
68510;BMP180;55512;50.102;19.958;2023-02-01T00:26:27;97963.20;;;2.00
68510;BMP180;55512;50.102;19.958;2023-02-01T00:28:53;97953.00;;;2.00
68510;BMP180;55512;50.102;19.958;2023-02-01T00:31:18;97954.40;;;2.00
68510;BMP180;55512;50.102;19.958;2023-02-01T00:33:47;97956.40;;;2.00
68510;BMP180;55512;50.102;19.958;2023-02-01T00:36:13;97959.80;;;2.08
68510;BMP180;55512;50.102;19.958;2023-02-01T00:38:39;97960.80;;;2.10
68510;BMP180;55512;50.102;19.958;2023-02-01T00:41:12;97938.20;;;2.10
68510;BMP180;55512;50.102;19.958;2023-02-01T00:43:38;97941.40;;;2.10
68510;BMP180;55512;50.102;19.958;2023-02-01T00:46:03;97941.20;;;2.10
68510;BMP180;55512;50.102;19.958;2023-02-01T00:48:30;97941.40;;;2.10
68510;BMP180;55512;50.102;19.958;2023-02-01T00:51:02;97941.20;;;2.10
68510;BMP180;55512;50.102;19.958;2023-02-01T00:53:28;97933.20;;;2.20
68510;BMP180;55512;50.102;19.958;2023-02-01T00:55:54;97942.20;;;2.20
68510;BMP180;55512;50.102;19.958;2023-02-01T00:58:20;97955.00;;;2.20
68510;BMP180;55512;50.102;19.958;2023-02-01T01:00:45;97947.20;;;2.20
68510;BMP180;55512;50.102;19.958;2023-02-01T01:03:12;97946.00;;;2.20
68510;BMP180;55512;50.102;19.958;2023-02-01T01:05:45;97942.40;;;2.20
68510;BMP180;55512;50.102;19.958;2023-02-01T01:08:10;97943.60;;;2.20
68510;BMP180;55512;50.102;19.958;2023-02-01T01:10:36;97939.80;;;2.20
68510;BMP180;55512;50.102;19.958;2023-02-01T01:13:01;97941.60;;;2.22
68510;BMP180;55512;50.102;19.958;2023-02-01T01:15:27;97940.40;;;2.24
68510;BMP180;55512;50.102;19.958;2023-02-01T01:17:52;97939.00;;;2.30
68510;BMP180;55512;50.102;19.958;2023-02-01T01:20:18;97963.80;;;2.30
68510;BMP180;55512;50.102;19.958;2023-02-01T01:22:47;97951.20;;;2.30
68510;BMP180;55512;50.102;19.958;2023-02-01T01:25:14;97951.80;;;2.32
68510;BMP180;55512;50.102;19.958;2023-02-01T01:27:40;97944.40;;;2.34
68510;BMP180;55512;50.102;19.958;2023-02-01T01:30:06;97932.40;;;2.30
68510;BMP180;55512;50.102;19.958;2023-02-01T01:32:32;97967.60;;;2.30
68510;BMP180;55512;50.102;19.958;2023-02-01T01:34:58;97978.20;;;2.30
68510;BMP180;55512;50.102;19.958;2023-02-01T01:37:23;97958.40;;;2.30
68510;BMP180;55512;50.102;19.958;2023-02-01T01:39:49;97965.40;;;2.30
68510;BMP180;55512;50.102;19.958;2023-02-01T01:42:14;97980.40;;;2.30
68510;BMP180;55512;50.102;19.958;2023-02-01T01:44:59;97950.40;;;2.28
68510;BMP180;55512;50.102;19.958;2023-02-01T01:47:33;97949.40;;;2.28
68510;BMP180;55512;50.102;19.958;2023-02-01T01:50:03;97966.00;;;2.20
68510;BMP180;55512;50.102;19.958;2023-02-01T01:52:30;97954.80;;;2.06
68510;BMP180;55512;50.102;19.958;2023-02-01T01:54:58;97944.20;;;2.00
68510;BMP180;55512;50.102;19.958;2023-02-01T01:57:37;97932.20;;;1.90
68510;BMP180;55512;50.102;19.958;2023-02-01T02:00:16;97938.40;;;1.80
68510;BMP180;55512;50.102;19.958;2023-02-01T02:02:46;97946.40;;;1.72
68510;BMP180;55512;50.102;19.958;2023-02-01T02:05:14;97945.00;;;1.70
68510;BMP180;55512;50.102;19.958;2023-02-01T02:07:46;97952.60;;;1.60
68510;BMP180;55512;50.102;19.958;2023-02-01T02:10:14;97941.00;;;1.60
68510;BMP180;55512;50.102;19.958;2023-02-01T02:12:44;97955.40;;;1.60
68510;BMP180;55512;50.102;19.958;2023-02-01T02:15:13;97955.60;;;1.60
68510;BMP180;55512;50.102;19.958;2023-02-01T02:17:58;97978.60;;;1.70
68510;BMP180;55512;50.102;19.958;2023-02-01T02:24:06;97976.40;;;1.70
68510;BMP180;55512;50.102;19.958;2023-02-01T02:27:00;97981.00;;;1.78
68510;BMP180;55512;50.102;19.958;2023-02-01T02:32:47;97978.60;;;1.78
68510;BMP180;55512;50.102;19.958;2023-02-01T02:35:33;97972.60;;;1.80
68510;BMP180;55512;50.102;19.958;2023-02-01T02:38:32;97976.20;;;1.80
68510;BMP180;55512;50.102;19.958;2023-02-01T02:43:54;97962.80;;;1.80
68510;BMP180;55512;50.102;19.958;2023-02-01T02:46:48;97981.40;;;1.80
68510;BMP180;55512;50.102;19.958;2023-02-01T02:49:51;97980.80;;;1.80
68510;BMP180;55512;50.102;19.958;2023-02-01T02:53:10;97978.00;;;1.80
68510;BMP180;55512;50.102;19.958;2023-02-01T02:55:52;97984.20;;;1.80
68510;BMP180;55512;50.102;19.958;2023-02-01T02:58:19;98013.40;;;1.80
68510;BMP180;55512;50.102;19.958;2023-02-01T03:01:04;97998.80;;;1.80
68510;BMP180;55512;50.102;19.958;2023-02-01T03:03:49;98004.60;;;1.80
68510;BMP180;55512;50.102;19.958;2023-02-01T03:06:34;97998.20;;;1.80
68510;BMP180;55512;50.102;19.958;2023-02-01T03:09:04;98003.00;;;1.80
68510;BMP180;55512;50.102;19.958;2023-02-01T03:11:35;97999.20;;;1.80
68510;BMP180;55512;50.102;19.958;2023-02-01T03:14:22;97996.20;;;1.80
68510;BMP180;55512;50.102;19.958;2023-02-01T03:16:59;98012.20;;;1.80
68510;BMP180;55512;50.102;19.958;2023-02-01T03:19:32;98021.00;;;1.80
68510;BMP180;55512;50.102;19.958;2023-02-01T03:22:06;98009.20;;;1.80
68510;BMP180;55512;50.102;19.958;2023-02-01T03:24:49;98012.80;;;1.80
68510;BMP180;55512;50.102;19.958;2023-02-01T03:27:25;98015.00;;;1.80
68510;BMP180;55512;50.102;19.958;2023-02-01T03:30:02;98038.80;;;1.80
68510;BMP180;55512;50.102;19.958;2023-02-01T03:32:32;98051.80;;;1.88
68510;BMP180;55512;50.102;19.958;2023-02-01T03:35:25;98038.80;;;1.90
68510;BMP180;55512;50.102;19.958;2023-02-01T03:41:08;98042.60;;;1.78
68510;BMP180;55512;50.102;19.958;2023-02-01T03:46:43;98043.00;;;1.70
68510;BMP180;55512;50.102;19.958;2023-02-01T03:49:19;98057.20;;;1.70
68510;BMP180;55512;50.102;19.958;2023-02-01T03:51:48;98049.60;;;1.70
68510;BMP180;55512;50.102;19.958;2023-02-01T03:54:18;98049.00;;;1.78
68510;BMP180;55512;50.102;19.958;2023-02-01T03:56:47;98041.60;;;1.80
68510;BMP180;55512;50.102;19.958;2023-02-01T03:59:14;98066.40;;;1.80
68510;BMP180;55512;50.102;19.958;2023-02-01T04:01:40;98054.80;;;1.80
68510;BMP180;55512;50.102;19.958;2023-02-01T04:04:06;98056.00;;;1.82
68510;BMP180;55512;50.102;19.958;2023-02-01T04:06:31;98060.60;;;1.86
68510;BMP180;55512;50.102;19.958;2023-02-01T04:08:57;98046.20;;;1.88
68510;BMP180;55512;50.102;19.958;2023-02-01T04:11:22;98044.40;;;1.90
68510;BMP180;55512;50.102;19.958;2023-02-01T04:13:48;98042.20;;;1.90
68510;BMP180;55512;50.102;19.958;2023-02-01T04:16:13;98037.20;;;2.00
68510;BMP180;55512;50.102;19.958;2023-02-01T04:18:39;98036.20;;;2.00
68510;BMP180;55512;50.102;19.958;2023-02-01T04:21:05;98051.00;;;2.00
68510;BMP180;55512;50.102;19.958;2023-02-01T04:23:30;98048.00;;;2.00
68510;BMP180;55512;50.102;19.958;2023-02-01T04:26:01;98051.40;;;2.00
68510;BMP180;55512;50.102;19.958;2023-02-01T04:28:27;98059.20;;;2.02
68510;BMP180;55512;50.102;19.958;2023-02-01T04:30:53;98051.20;;;2.06
68510;BMP180;55512;50.102;19.958;2023-02-01T04:33:18;98050.20;;;2.02
68510;BMP180;55512;50.102;19.958;2023-02-01T04:35:44;98053.60;;;2.00
68510;BMP180;55512;50.102;19.958;2023-02-01T04:38:09;98056.40;;;2.00
68510;BMP180;55512;50.102;19.958;2023-02-01T04:40:34;98049.40;;;2.00
68510;BMP180;55512;50.102;19.958;2023-02-01T04:43:03;98052.80;;;2.00
68510;BMP180;55512;50.102;19.958;2023-02-01T04:45:29;98055.00;;;2.00
68510;BMP180;55512;50.102;19.958;2023-02-01T04:47:55;98055.40;;;2.00
68510;BMP180;55512;50.102;19.958;2023-02-01T04:50:20;98068.00;;;2.00
68510;BMP180;55512;50.102;19.958;2023-02-01T04:52:46;98066.00;;;2.00
68510;BMP180;55512;50.102;19.958;2023-02-01T04:55:12;98064.60;;;2.00
68510;BMP180;55512;50.102;19.958;2023-02-01T04:57:39;98067.40;;;2.00
68510;BMP180;55512;50.102;19.958;2023-02-01T05:00:08;98061.60;;;2.00
68510;BMP180;55512;50.102;19.958;2023-02-01T05:02:34;98077.20;;;2.02
68510;BMP180;55512;50.102;19.958;2023-02-01T05:05:01;98076.80;;;2.06
68510;BMP180;55512;50.102;19.958;2023-02-01T05:07:26;98082.80;;;2.02
68510;BMP180;55512;50.102;19.958;2023-02-01T05:09:52;98078.60;;;2.06
68510;BMP180;55512;50.102;19.958;2023-02-01T05:12:17;98081.00;;;2.08
68510;BMP180;55512;50.102;19.958;2023-02-01T05:15:01;98070.00;;;2.10
68510;BMP180;55512;50.102;19.958;2023-02-01T05:17:27;98064.20;;;2.10
68510;BMP180;55512;50.102;19.958;2023-02-01T05:19:52;98064.00;;;2.10
68510;BMP180;55512;50.102;19.958;2023-02-01T05:22:17;98058.00;;;2.12
68510;BMP180;55512;50.102;19.958;2023-02-01T05:24:44;98062.60;;;2.20
68510;BMP180;55512;50.102;19.958;2023-02-01T05:27:09;98063.00;;;2.20
68510;BMP180;55512;50.102;19.958;2023-02-01T05:29:35;98061.40;;;2.20
68510;BMP180;55512;50.102;19.958;2023-02-01T05:32:00;98065.20;;;2.20
68510;BMP180;55512;50.102;19.958;2023-02-01T05:34:26;98079.40;;;2.20
68510;BMP180;55512;50.102;19.958;2023-02-01T05:36:51;98074.80;;;2.20
68510;BMP180;55512;50.102;19.958;2023-02-01T05:39:17;98075.40;;;2.20
68510;BMP180;55512;50.102;19.958;2023-02-01T05:41:42;98066.20;;;2.10
68510;BMP180;55512;50.102;19.958;2023-02-01T05:44:08;98066.40;;;2.10
68510;BMP180;55512;50.102;19.958;2023-02-01T05:46:35;98070.00;;;2.10
68510;BMP180;55512;50.102;19.958;2023-02-01T05:49:01;98077.20;;;2.10
68510;BMP180;55512;50.102;19.958;2023-02-01T05:51:27;98072.80;;;2.20
68510;BMP180;55512;50.102;19.958;2023-02-01T05:53:52;98063.80;;;2.18
68510;BMP180;55512;50.102;19.958;2023-02-01T05:56:18;98067.80;;;2.20
68510;BMP180;55512;50.102;19.958;2023-02-01T05:58:43;98067.40;;;2.20
68510;BMP180;55512;50.102;19.958;2023-02-01T06:01:09;98063.80;;;2.20
68510;BMP180;55512;50.102;19.958;2023-02-01T06:03:34;98069.00;;;2.20
68510;BMP180;55512;50.102;19.958;2023-02-01T06:06:00;98063.80;;;2.20
68510;BMP180;55512;50.102;19.958;2023-02-01T06:08:27;98062.80;;;2.26
68510;BMP180;55512;50.102;19.958;2023-02-01T06:11:04;98061.80;;;2.26
68510;BMP180;55512;50.102;19.958;2023-02-01T06:13:31;98066.60;;;2.20
68510;BMP180;55512;50.102;19.958;2023-02-01T06:15:56;98065.40;;;2.18
68510;BMP180;55512;50.102;19.958;2023-02-01T06:18:26;98062.60;;;2.14
68510;BMP180;55512;50.102;19.958;2023-02-01T06:20:54;98060.40;;;2.20
68510;BMP180;55512;50.102;19.958;2023-02-01T06:23:20;98058.00;;;2.20
68510;BMP180;55512;50.102;19.958;2023-02-01T06:25:53;98069.20;;;2.20
68510;BMP180;55512;50.102;19.958;2023-02-01T06:28:23;98067.80;;;2.10
68510;BMP180;55512;50.102;19.958;2023-02-01T06:30:49;98062.80;;;2.10
68510;BMP180;55512;50.102;19.958;2023-02-01T06:33:14;98067.20;;;2.10
68510;BMP180;55512;50.102;19.958;2023-02-01T06:35:42;98065.00;;;2.10
68510;BMP180;55512;50.102;19.958;2023-02-01T06:38:12;98065.00;;;2.10
68510;BMP180;55512;50.102;19.958;2023-02-01T06:40:39;98061.00;;;2.16
68510;BMP180;55512;50.102;19.958;2023-02-01T06:43:07;98055.40;;;2.20
68510;BMP180;55512;50.102;19.958;2023-02-01T06:45:32;98061.40;;;2.20
68510;BMP180;55512;50.102;19.958;2023-02-01T06:47:59;98051.60;;;2.20
68510;BMP180;55512;50.102;19.958;2023-02-01T06:50:27;98057.20;;;2.20
68510;BMP180;55512;50.102;19.958;2023-02-01T06:52:53;98060.00;;;2.20
68510;BMP180;55512;50.102;19.958;2023-02-01T06:55:18;98049.20;;;2.20
68510;BMP180;55512;50.102;19.958;2023-02-01T06:57:43;98059.60;;;2.30
68510;BMP180;55512;50.102;19.958;2023-02-01T07:00:10;98057.20;;;2.30
68510;BMP180;55512;50.102;19.958;2023-02-01T07:02:35;98059.20;;;2.30
68510;BMP180;55512;50.102;19.958;2023-02-01T07:05:02;98064.20;;;2.30
68510;BMP180;55512;50.102;19.958;2023-02-01T07:07:27;98060.60;;;2.38
68510;BMP180;55512;50.102;19.958;2023-02-01T07:09:53;98057.80;;;2.40
68510;BMP180;55512;50.102;19.958;2023-02-01T07:12:18;98059.00;;;2.40
68510;BMP180;55512;50.102;19.958;2023-02-01T07:14:44;98058.00;;;2.42
68510;BMP180;55512;50.102;19.958;2023-02-01T07:17:09;98055.80;;;2.50
68510;BMP180;55512;50.102;19.958;2023-02-01T07:19:35;98051.20;;;2.50
68510;BMP180;55512;50.102;19.958;2023-02-01T07:22:00;98047.00;;;2.50
68510;BMP180;55512;50.102;19.958;2023-02-01T07:24:26;98041.20;;;2.60
68510;BMP180;55512;50.102;19.958;2023-02-01T07:26:51;98041.20;;;2.60
68510;BMP180;55512;50.102;19.958;2023-02-01T07:29:18;98042.60;;;2.60
68510;BMP180;55512;50.102;19.958;2023-02-01T07:31:43;98039.60;;;2.62
68510;BMP180;55512;50.102;19.958;2023-02-01T07:34:09;98037.60;;;2.68
68510;BMP180;55512;50.102;19.958;2023-02-01T07:36:34;98035.00;;;2.60
68510;BMP180;55512;50.102;19.958;2023-02-01T07:39:03;98029.80;;;2.70
68510;BMP180;55512;50.102;19.958;2023-02-01T07:41:28;98029.20;;;2.70
68510;BMP180;55512;50.102;19.958;2023-02-01T07:43:55;98030.60;;;2.80
68510;BMP180;55512;50.102;19.958;2023-02-01T07:46:21;98035.20;;;2.80
68510;BMP180;55512;50.102;19.958;2023-02-01T07:48:46;98023.60;;;2.80
68510;BMP180;55512;50.102;19.958;2023-02-01T07:51:15;98019.00;;;2.90
68510;BMP180;55512;50.102;19.958;2023-02-01T07:53:44;98016.20;;;2.90
68510;BMP180;55512;50.102;19.958;2023-02-01T07:56:14;98020.60;;;3.00
68510;BMP180;55512;50.102;19.958;2023-02-01T07:58:40;98025.20;;;3.00
68510;BMP180;55512;50.102;19.958;2023-02-01T08:01:20;98031.20;;;3.04
68510;BMP180;55512;50.102;19.958;2023-02-01T08:03:52;98032.40;;;3.10
68510;BMP180;55512;50.102;19.958;2023-02-01T08:06:18;98037.40;;;3.10
68510;BMP180;55512;50.102;19.958;2023-02-01T08:08:49;98029.20;;;3.08
68510;BMP180;55512;50.102;19.958;2023-02-01T08:11:15;98031.80;;;3.10
68510;BMP180;55512;50.102;19.958;2023-02-01T08:13:42;98035.40;;;3.10
68510;BMP180;55512;50.102;19.958;2023-02-01T08:16:11;98022.80;;;3.10
68510;BMP180;55512;50.102;19.958;2023-02-01T08:18:38;98029.40;;;3.10
68510;BMP180;55512;50.102;19.958;2023-02-01T08:21:06;98026.00;;;3.02
68510;BMP180;55512;50.102;19.958;2023-02-01T08:23:35;98031.20;;;3.10
68510;BMP180;55512;50.102;19.958;2023-02-01T08:28:33;98025.80;;;3.10
68510;BMP180;55512;50.102;19.958;2023-02-01T08:31:04;98020.80;;;3.14
68510;BMP180;55512;50.102;19.958;2023-02-01T08:33:29;98020.00;;;3.20
68510;BMP180;55512;50.102;19.958;2023-02-01T08:35:54;98028.20;;;3.20
68510;BMP180;55512;50.102;19.958;2023-02-01T08:38:20;98023.60;;;3.20
68510;BMP180;55512;50.102;19.958;2023-02-01T08:40:45;98030.60;;;3.20
68510;BMP180;55512;50.102;19.958;2023-02-01T08:43:11;98037.40;;;3.30
68510;BMP180;55512;50.102;19.958;2023-02-01T08:45:37;98033.00;;;3.20
68510;BMP180;55512;50.102;19.958;2023-02-01T08:48:02;98043.00;;;3.20
68510;BMP180;55512;50.102;19.958;2023-02-01T08:50:28;98038.60;;;3.20
68510;BMP180;55512;50.102;19.958;2023-02-01T08:52:53;98040.80;;;3.28
68510;BMP180;55512;50.102;19.958;2023-02-01T08:55:20;98046.40;;;3.30
68510;BMP180;55512;50.102;19.958;2023-02-01T08:57:46;98047.80;;;3.30
68510;BMP180;55512;50.102;19.958;2023-02-01T09:00:15;98053.20;;;3.36
68510;BMP180;55512;50.102;19.958;2023-02-01T09:02:42;98059.20;;;3.40
68510;BMP180;55512;50.102;19.958;2023-02-01T09:05:08;98042.00;;;3.40
68510;BMP180;55512;50.102;19.958;2023-02-01T09:07:34;98034.60;;;3.40
68510;BMP180;55512;50.102;19.958;2023-02-01T09:10:00;98032.40;;;3.50
68510;BMP180;55512;50.102;19.958;2023-02-01T09:12:32;98041.00;;;3.50
68510;BMP180;55512;50.102;19.958;2023-02-01T09:14:58;98025.80;;;3.54
68510;BMP180;55512;50.102;19.958;2023-02-01T09:17:29;98026.60;;;3.60
68510;BMP180;55512;50.102;19.958;2023-02-01T09:19:54;98023.60;;;3.60
68510;BMP180;55512;50.102;19.958;2023-02-01T09:22:20;98011.20;;;3.70
68510;BMP180;55512;50.102;19.958;2023-02-01T09:24:46;98019.40;;;3.80
68510;BMP180;55512;50.102;19.958;2023-02-01T09:27:13;98015.80;;;3.80
68510;BMP180;55512;50.102;19.958;2023-02-01T09:29:38;98012.60;;;3.80
68510;BMP180;55512;50.102;19.958;2023-02-01T09:32:04;98016.00;;;3.90
68510;BMP180;55512;50.102;19.958;2023-02-01T09:34:32;98008.60;;;3.90
68510;BMP180;55512;50.102;19.958;2023-02-01T09:36:58;98004.40;;;4.00
68510;BMP180;55512;50.102;19.958;2023-02-01T09:39:23;98009.00;;;4.10
68510;BMP180;55512;50.102;19.958;2023-02-01T09:47:25;98012.80;;;4.10
68510;BMP180;55512;50.102;19.958;2023-02-01T09:50:18;98003.60;;;4.16
68510;BMP180;55512;50.102;19.958;2023-02-01T09:52:59;98003.20;;;4.22
68510;BMP180;55512;50.102;19.958;2023-02-01T09:55:41;98003.80;;;4.30
68510;BMP180;55512;50.102;19.958;2023-02-01T10:00:55;98002.80;;;4.30
68510;BMP180;55512;50.102;19.958;2023-02-01T10:03:27;98009.80;;;4.30
68510;BMP180;55512;50.102;19.958;2023-02-01T10:09:33;98000.20;;;4.40
68510;BMP180;55512;50.102;19.958;2023-02-01T10:14:59;97991.20;;;4.60
68510;BMP180;55512;50.102;19.958;2023-02-01T10:23:30;97996.60;;;4.70
68510;BMP180;55512;50.102;19.958;2023-02-01T10:26:18;97999.40;;;4.68
68510;BMP180;55512;50.102;19.958;2023-02-01T10:28:50;97994.40;;;4.70
68510;BMP180;55512;50.102;19.958;2023-02-01T10:31:17;97994.60;;;4.70
68510;BMP180;55512;50.102;19.958;2023-02-01T10:33:48;97986.80;;;4.70
68510;BMP180;55512;50.102;19.958;2023-02-01T10:38:45;97993.40;;;4.60
68510;BMP180;55512;50.102;19.958;2023-02-01T10:41:20;98003.80;;;4.50
68510;BMP180;55512;50.102;19.958;2023-02-01T10:43:53;97989.00;;;4.42
68510;BMP180;55512;50.102;19.958;2023-02-01T10:46:22;98002.40;;;4.40
68510;BMP180;55512;50.102;19.958;2023-02-01T10:48:50;97995.40;;;4.30
68510;BMP180;55512;50.102;19.958;2023-02-01T10:51:58;97998.80;;;4.30
68510;BMP180;55512;50.102;19.958;2023-02-01T10:54:37;97990.80;;;4.30
68510;BMP180;55512;50.102;19.958;2023-02-01T10:57:11;97987.40;;;4.24
68510;BMP180;55512;50.102;19.958;2023-02-01T10:59:44;97990.80;;;4.28
68510;BMP180;55512;50.102;19.958;2023-02-01T11:02:23;97986.80;;;4.28
68510;BMP180;55512;50.102;19.958;2023-02-01T11:05:01;97982.60;;;4.20
68510;BMP180;55512;50.102;19.958;2023-02-01T11:07:29;97994.00;;;4.12
68510;BMP180;55512;50.102;19.958;2023-02-01T11:09:56;97992.20;;;4.10
68510;BMP180;55512;50.102;19.958;2023-02-01T11:12:37;97982.40;;;4.10
68510;BMP180;55512;50.102;19.958;2023-02-01T11:15:18;97979.60;;;4.10
68510;BMP180;55512;50.102;19.958;2023-02-01T11:17:47;97976.80;;;4.10
68510;BMP180;55512;50.102;19.958;2023-02-01T11:20:26;97974.20;;;4.10
68510;BMP180;55512;50.102;19.958;2023-02-01T11:23:00;97968.00;;;4.10
68510;BMP180;55512;50.102;19.958;2023-02-01T11:25:26;97967.60;;;4.00
68510;BMP180;55512;50.102;19.958;2023-02-01T11:27:55;97968.00;;;4.00
68510;BMP180;55512;50.102;19.958;2023-02-01T11:30:36;97959.40;;;4.00
68510;BMP180;55512;50.102;19.958;2023-02-01T11:33:05;97953.60;;;4.00
68510;BMP180;55512;50.102;19.958;2023-02-01T11:35:31;97950.00;;;4.08
68510;BMP180;55512;50.102;19.958;2023-02-01T11:37:59;97960.80;;;4.10
68510;BMP180;55512;50.102;19.958;2023-02-01T11:40:35;97950.60;;;4.10
68510;BMP180;55512;50.102;19.958;2023-02-01T11:45:40;97951.00;;;4.10
68510;BMP180;55512;50.102;19.958;2023-02-01T11:48:16;97947.40;;;4.10
68510;BMP180;55512;50.102;19.958;2023-02-01T12:22:59;97920.40;;;4.20
68510;BMP180;55512;50.102;19.958;2023-02-01T12:43:19;97897.80;;;4.20
68510;BMP180;55512;50.102;19.958;2023-02-01T12:46:02;97890.20;;;4.22
68510;BMP180;55512;50.102;19.958;2023-02-01T12:48:39;97893.60;;;4.30
68510;BMP180;55512;50.102;19.958;2023-02-01T12:51:16;97889.80;;;4.30
68510;BMP180;55512;50.102;19.958;2023-02-01T12:56:25;97882.20;;;4.40
68510;BMP180;55512;50.102;19.958;2023-02-01T12:58:58;97884.00;;;4.40
68510;BMP180;55512;50.102;19.958;2023-02-01T13:01:35;97882.80;;;4.40
68510;BMP180;55512;50.102;19.958;2023-02-01T13:07:03;97888.40;;;4.46
68510;BMP180;55512;50.102;19.958;2023-02-01T13:12:15;97880.80;;;4.40
68510;BMP180;55512;50.102;19.958;2023-02-01T13:14:54;97877.60;;;4.40
68510;BMP180;55512;50.102;19.958;2023-02-01T13:17:28;97886.80;;;4.40
68510;BMP180;55512;50.102;19.958;2023-02-01T13:20:04;97878.80;;;4.36
68510;BMP180;55512;50.102;19.958;2023-02-01T13:22:37;97873.80;;;4.30
68510;BMP180;55512;50.102;19.958;2023-02-01T13:28:12;97874.20;;;4.30
68510;BMP180;55512;50.102;19.958;2023-02-01T13:30:47;97865.00;;;4.30
68510;BMP180;55512;50.102;19.958;2023-02-01T13:33:52;97861.80;;;4.30
68510;BMP180;55512;50.102;19.958;2023-02-01T13:36:44;97862.20;;;4.30
68510;BMP180;55512;50.102;19.958;2023-02-01T13:42:26;97857.00;;;4.30
68510;BMP180;55512;50.102;19.958;2023-02-01T13:45:03;97857.80;;;4.28
68510;BMP180;55512;50.102;19.958;2023-02-01T13:47:52;97859.60;;;4.28
68510;BMP180;55512;50.102;19.958;2023-02-01T13:50:35;97857.60;;;4.20
68510;BMP180;55512;50.102;19.958;2023-02-01T13:53:14;97857.80;;;4.20
68510;BMP180;55512;50.102;19.958;2023-02-01T13:55:45;97865.00;;;4.20
68510;BMP180;55512;50.102;19.958;2023-02-01T13:58:38;97861.80;;;4.12
68510;BMP180;55512;50.102;19.958;2023-02-01T14:01:33;97860.80;;;4.10
68510;BMP180;55512;50.102;19.958;2023-02-01T14:04:03;97859.60;;;4.10
68510;BMP180;55512;50.102;19.958;2023-02-01T14:11:53;97846.00;;;4.18
68510;BMP180;55512;50.102;19.958;2023-02-01T14:19:26;97847.60;;;4.16
68510;BMP180;55512;50.102;19.958;2023-02-01T14:21:59;97841.00;;;4.18
68510;BMP180;55512;50.102;19.958;2023-02-01T14:24:33;97845.20;;;4.16
68510;BMP180;55512;50.102;19.958;2023-02-01T14:27:07;97847.20;;;4.18
68510;BMP180;55512;50.102;19.958;2023-02-01T14:29:41;97838.60;;;4.20
68510;BMP180;55512;50.102;19.958;2023-02-01T14:32:18;97833.40;;;4.14
68510;BMP180;55512;50.102;19.958;2023-02-01T14:47:49;97828.80;;;4.06
68510;BMP180;55512;50.102;19.958;2023-02-01T14:56:28;97830.20;;;3.94
68510;BMP180;55512;50.102;19.958;2023-02-01T15:01:21;97832.00;;;3.88
68510;BMP180;55512;50.102;19.958;2023-02-01T15:06:41;97837.40;;;3.80
68510;BMP180;55512;50.102;19.958;2023-02-01T15:09:28;97845.00;;;3.80
68510;BMP180;55512;50.102;19.958;2023-02-01T15:14:37;97851.00;;;3.70
68510;BMP180;55512;50.102;19.958;2023-02-01T15:17:27;97846.60;;;3.64
68510;BMP180;55512;50.102;19.958;2023-02-01T15:19:59;97851.00;;;3.60
68510;BMP180;55512;50.102;19.958;2023-02-01T15:22:29;97853.20;;;3.52
68510;BMP180;55512;50.102;19.958;2023-02-01T15:24:59;97858.60;;;3.40
68510;BMP180;55512;50.102;19.958;2023-02-01T15:27:27;97859.80;;;3.40
68510;BMP180;55512;50.102;19.958;2023-02-01T15:29:53;97862.00;;;3.30
68510;BMP180;55512;50.102;19.958;2023-02-01T15:32:35;97861.80;;;3.20
68510;BMP180;55512;50.102;19.958;2023-02-01T15:35:02;97861.60;;;3.20
68510;BMP180;55512;50.102;19.958;2023-02-01T15:37:29;97862.60;;;3.10
68510;BMP180;55512;50.102;19.958;2023-02-01T15:40:25;97858.00;;;3.08
68510;BMP180;55512;50.102;19.958;2023-02-01T15:42:55;97870.80;;;3.00
68510;BMP180;55512;50.102;19.958;2023-02-01T15:45:27;97863.40;;;3.00
68510;BMP180;55512;50.102;19.958;2023-02-01T15:47:57;97857.60;;;2.90
68510;BMP180;55512;50.102;19.958;2023-02-01T15:50:23;97860.60;;;2.90
68510;BMP180;55512;50.102;19.958;2023-02-01T15:52:54;97867.00;;;2.88
68510;BMP180;55512;50.102;19.958;2023-02-01T15:55:40;97861.80;;;2.82
68510;BMP180;55512;50.102;19.958;2023-02-01T15:58:20;97862.00;;;2.80
68510;BMP180;55512;50.102;19.958;2023-02-01T16:00:55;97863.40;;;2.74
68510;BMP180;55512;50.102;19.958;2023-02-01T16:03:40;97869.80;;;2.70
68510;BMP180;55512;50.102;19.958;2023-02-01T16:06:26;97870.40;;;2.70
68510;BMP180;55512;50.102;19.958;2023-02-01T16:09:10;97873.40;;;2.70
68510;BMP180;55512;50.102;19.958;2023-02-01T16:14:17;97869.80;;;2.66
68510;BMP180;55512;50.102;19.958;2023-02-01T16:16:43;97874.00;;;2.64
68510;BMP180;55512;50.102;19.958;2023-02-01T16:19:09;97881.20;;;2.64
68510;BMP180;55512;50.102;19.958;2023-02-01T16:21:35;97877.20;;;2.60
68510;BMP180;55512;50.102;19.958;2023-02-01T16:24:00;97874.80;;;2.60
68510;BMP180;55512;50.102;19.958;2023-02-01T17:03:11;97920.60;;;2.04
68510;BMP180;55512;50.102;19.958;2023-02-01T17:05:50;97918.80;;;2.12
68510;BMP180;55512;50.102;19.958;2023-02-01T17:08:26;97925.80;;;2.20
68510;BMP180;55512;50.102;19.958;2023-02-01T17:10:52;97926.00;;;2.26
68510;BMP180;55512;50.102;19.958;2023-02-01T17:13:18;97920.20;;;2.30
68510;BMP180;55512;50.102;19.958;2023-02-01T17:15:59;97930.60;;;2.30
68510;BMP180;55512;50.102;19.958;2023-02-01T17:18:28;97927.00;;;2.40
68510;BMP180;55512;50.102;19.958;2023-02-01T17:20:58;97932.60;;;2.40
68510;BMP180;55512;50.102;19.958;2023-02-01T17:23:27;97927.60;;;2.50
68510;BMP180;55512;50.102;19.958;2023-02-01T17:25:53;97929.40;;;2.50
68510;BMP180;55512;50.102;19.958;2023-02-01T17:28:19;97926.40;;;2.60
68510;BMP180;55512;50.102;19.958;2023-02-01T17:30:45;97925.40;;;2.60
68510;BMP180;55512;50.102;19.958;2023-02-01T17:33:34;97930.20;;;2.62
68510;BMP180;55512;50.102;19.958;2023-02-01T17:36:00;97937.20;;;2.70